sensor_id;sensor_type;location;lat;lon;timestamp;temperature;humidity
40848;DHT22;26570;50.962;5.340;2023-08-24T00:03:00;19.20;99.90
40848;DHT22;26570;50.962;5.340;2023-08-24T00:05:51;19.10;99.90
40848;DHT22;26570;50.962;5.340;2023-08-24T00:09:03;19.20;99.90
40848;DHT22;26570;50.962;5.340;2023-08-24T00:12:22;19.30;99.90
40848;DHT22;26570;50.962;5.340;2023-08-24T00:15:20;19.30;99.90
40848;DHT22;26570;50.962;5.340;2023-08-24T00:18:18;19.20;99.90
40848;DHT22;26570;50.962;5.340;2023-08-24T00:21:35;19.30;99.90
40848;DHT22;26570;50.962;5.340;2023-08-24T00:24:55;19.30;99.90
40848;DHT22;26570;50.962;5.340;2023-08-24T00:27:49;19.20;99.90
40848;DHT22;26570;50.962;5.340;2023-08-24T00:30:59;19.20;99.90
40848;DHT22;26570;50.962;5.340;2023-08-24T00:33:59;19.20;99.90
40848;DHT22;26570;50.962;5.340;2023-08-24T00:36:59;19.10;99.90
40848;DHT22;26570;50.962;5.340;2023-08-24T00:40:22;19.10;99.90
40848;DHT22;26570;50.962;5.340;2023-08-24T00:43:15;19.10;99.90
40848;DHT22;26570;50.962;5.340;2023-08-24T00:46:08;19.10;99.90
40848;DHT22;26570;50.962;5.340;2023-08-24T00:49:18;18.90;99.90
40848;DHT22;26570;50.962;5.340;2023-08-24T00:52:40;19.00;99.90
40848;DHT22;26570;50.962;5.340;2023-08-24T00:56:04;19.00;99.90
40848;DHT22;26570;50.962;5.340;2023-08-24T00:59:31;18.90;99.90
40848;DHT22;26570;50.962;5.340;2023-08-24T01:02:32;18.90;99.90
40848;DHT22;26570;50.962;5.340;2023-08-24T01:05:56;18.90;99.90
40848;DHT22;26570;50.962;5.340;2023-08-24T01:09:12;18.90;99.90
40848;DHT22;26570;50.962;5.340;2023-08-24T01:15:06;18.80;99.90
40848;DHT22;26570;50.962;5.340;2023-08-24T01:21:11;18.90;99.90
40848;DHT22;26570;50.962;5.340;2023-08-24T01:24:30;18.80;99.90
40848;DHT22;26570;50.962;5.340;2023-08-24T01:27:23;18.70;99.90
40848;DHT22;26570;50.962;5.340;2023-08-24T01:30:40;18.90;99.90
40848;DHT22;26570;50.962;5.340;2023-08-24T01:34:09;18.80;99.90
40848;DHT22;26570;50.962;5.340;2023-08-24T01:37:20;18.90;99.90
40848;DHT22;26570;50.962;5.340;2023-08-24T01:40:36;18.90;99.90
40848;DHT22;26570;50.962;5.340;2023-08-24T01:43:49;18.90;99.90
40848;DHT22;26570;50.962;5.340;2023-08-24T01:47:09;19.20;99.90
40848;DHT22;26570;50.962;5.340;2023-08-24T01:50:00;19.10;99.90
40848;DHT22;26570;50.962;5.340;2023-08-24T01:52:58;19.10;99.90
40848;DHT22;26570;50.962;5.340;2023-08-24T01:55:49;19.00;99.90
40848;DHT22;26570;50.962;5.340;2023-08-24T01:58:44;19.10;99.90
40848;DHT22;26570;50.962;5.340;2023-08-24T02:01:39;19.10;99.90
40848;DHT22;26570;50.962;5.340;2023-08-24T02:04:33;18.90;99.90
40848;DHT22;26570;50.962;5.340;2023-08-24T02:07:51;19.10;99.90
40848;DHT22;26570;50.962;5.340;2023-08-24T02:11:26;19.00;99.90
40848;DHT22;26570;50.962;5.340;2023-08-24T02:14:25;19.20;99.90
40848;DHT22;26570;50.962;5.340;2023-08-24T02:17:18;19.20;99.90
40848;DHT22;26570;50.962;5.340;2023-08-24T02:20:51;19.40;99.90
40848;DHT22;26570;50.962;5.340;2023-08-24T02:23:53;19.30;99.90
40848;DHT22;26570;50.962;5.340;2023-08-24T02:27:36;19.30;99.90
40848;DHT22;26570;50.962;5.340;2023-08-24T02:30:25;19.20;99.90
40848;DHT22;26570;50.962;5.340;2023-08-24T02:33:48;19.30;99.90
40848;DHT22;26570;50.962;5.340;2023-08-24T02:36:58;19.40;99.90
40848;DHT22;26570;50.962;5.340;2023-08-24T02:39:55;19.40;99.90
40848;DHT22;26570;50.962;5.340;2023-08-24T02:43:06;19.40;99.90
40848;DHT22;26570;50.962;5.340;2023-08-24T02:46:30;19.40;99.90
40848;DHT22;26570;50.962;5.340;2023-08-24T02:49:32;19.50;99.90
40848;DHT22;26570;50.962;5.340;2023-08-24T02:52:26;19.50;99.90
40848;DHT22;26570;50.962;5.340;2023-08-24T02:55:27;19.70;99.90
40848;DHT22;26570;50.962;5.340;2023-08-24T02:58:42;19.50;99.90
40848;DHT22;26570;50.962;5.340;2023-08-24T03:01:40;19.50;99.90
40848;DHT22;26570;50.962;5.340;2023-08-24T03:04:36;19.80;99.90
40848;DHT22;26570;50.962;5.340;2023-08-24T03:07:56;19.60;99.90
40848;DHT22;26570;50.962;5.340;2023-08-24T03:11:13;19.60;99.90
40848;DHT22;26570;50.962;5.340;2023-08-24T03:14:54;19.40;99.90
40848;DHT22;26570;50.962;5.340;2023-08-24T03:18:06;19.40;99.90
40848;DHT22;26570;50.962;5.340;2023-08-24T03:21:22;19.20;99.90
40848;DHT22;26570;50.962;5.340;2023-08-24T03:24:42;19.10;99.90
40848;DHT22;26570;50.962;5.340;2023-08-24T03:28:03;19.20;99.90
40848;DHT22;26570;50.962;5.340;2023-08-24T03:31:20;19.10;99.90
40848;DHT22;26570;50.962;5.340;2023-08-24T03:34:36;19.10;99.90
40848;DHT22;26570;50.962;5.340;2023-08-24T03:37:32;19.30;99.90
40848;DHT22;26570;50.962;5.340;2023-08-24T03:40:20;19.10;99.90
40848;DHT22;26570;50.962;5.340;2023-08-24T03:43:38;19.10;99.90
40848;DHT22;26570;50.962;5.340;2023-08-24T03:46:53;19.00;99.90
40848;DHT22;26570;50.962;5.340;2023-08-24T03:49:47;19.20;99.90
40848;DHT22;26570;50.962;5.340;2023-08-24T03:53:10;19.20;99.90
40848;DHT22;26570;50.962;5.340;2023-08-24T03:56:08;19.10;99.90
40848;DHT22;26570;50.962;5.340;2023-08-24T03:59:24;19.10;99.90
40848;DHT22;26570;50.962;5.340;2023-08-24T04:02:23;19.30;99.90
40848;DHT22;26570;50.962;5.340;2023-08-24T04:05:26;19.20;99.90
40848;DHT22;26570;50.962;5.340;2023-08-24T04:08:28;19.20;99.90
40848;DHT22;26570;50.962;5.340;2023-08-24T04:11:49;19.40;99.90
40848;DHT22;26570;50.962;5.340;2023-08-24T04:15:09;19.20;99.90
40848;DHT22;26570;50.962;5.340;2023-08-24T04:18:34;19.30;99.90
40848;DHT22;26570;50.962;5.340;2023-08-24T04:22:03;19.30;99.90
40848;DHT22;26570;50.962;5.340;2023-08-24T04:25:01;19.20;99.90
40848;DHT22;26570;50.962;5.340;2023-08-24T04:27:57;19.20;99.90
40848;DHT22;26570;50.962;5.340;2023-08-24T04:31:29;19.10;99.90
40848;DHT22;26570;50.962;5.340;2023-08-24T04:34:41;18.90;99.90
40848;DHT22;26570;50.962;5.340;2023-08-24T04:37:36;19.00;99.90
40848;DHT22;26570;50.962;5.340;2023-08-24T04:41:06;19.10;99.90
40848;DHT22;26570;50.962;5.340;2023-08-24T04:44:23;19.00;99.90
40848;DHT22;26570;50.962;5.340;2023-08-24T04:47:49;19.10;99.90
40848;DHT22;26570;50.962;5.340;2023-08-24T04:51:11;18.90;99.90
40848;DHT22;26570;50.962;5.340;2023-08-24T04:54:13;19.00;99.90
40848;DHT22;26570;50.962;5.340;2023-08-24T04:57:34;18.90;99.90
40848;DHT22;26570;50.962;5.340;2023-08-24T05:00:39;18.90;99.90
40848;DHT22;26570;50.962;5.340;2023-08-24T05:04:08;19.00;99.90
40848;DHT22;26570;50.962;5.340;2023-08-24T05:07:05;19.00;99.90
40848;DHT22;26570;50.962;5.340;2023-08-24T05:10:42;18.90;99.90
40848;DHT22;26570;50.962;5.340;2023-08-24T05:13:51;19.00;99.90
40848;DHT22;26570;50.962;5.340;2023-08-24T05:17:12;19.10;99.90
40848;DHT22;26570;50.962;5.340;2023-08-24T05:20:23;19.00;99.90
40848;DHT22;26570;50.962;5.340;2023-08-24T05:23:23;19.10;99.90
40848;DHT22;26570;50.962;5.340;2023-08-24T05:27:06;19.10;99.90
40848;DHT22;26570;50.962;5.340;2023-08-24T05:30:30;19.20;99.90
40848;DHT22;26570;50.962;5.340;2023-08-24T05:33:58;19.40;99.90
40848;DHT22;26570;50.962;5.340;2023-08-24T05:37:08;19.30;99.90
40848;DHT22;26570;50.962;5.340;2023-08-24T05:40:26;19.30;99.90
40848;DHT22;26570;50.962;5.340;2023-08-24T05:44:12;19.30;99.90
40848;DHT22;26570;50.962;5.340;2023-08-24T05:47:29;19.30;99.90
40848;DHT22;26570;50.962;5.340;2023-08-24T05:50:21;19.40;99.90
40848;DHT22;26570;50.962;5.340;2023-08-24T05:53:08;19.50;99.90
40848;DHT22;26570;50.962;5.340;2023-08-24T05:55:58;19.70;99.90
40848;DHT22;26570;50.962;5.340;2023-08-24T05:59:02;19.80;99.90
40848;DHT22;26570;50.962;5.340;2023-08-24T06:01:52;19.80;99.90
40848;DHT22;26570;50.962;5.340;2023-08-24T06:04:42;20.00;99.90
40848;DHT22;26570;50.962;5.340;2023-08-24T06:07:39;20.10;99.90
40848;DHT22;26570;50.962;5.340;2023-08-24T06:10:39;20.30;99.90
40848;DHT22;26570;50.962;5.340;2023-08-24T06:14:00;20.40;99.90
40848;DHT22;26570;50.962;5.340;2023-08-24T06:16:49;20.50;99.90
40848;DHT22;26570;50.962;5.340;2023-08-24T06:19:41;20.50;99.90
40848;DHT22;26570;50.962;5.340;2023-08-24T06:22:39;20.80;99.90
40848;DHT22;26570;50.962;5.340;2023-08-24T06:25:31;20.80;99.90
40848;DHT22;26570;50.962;5.340;2023-08-24T06:28:43;21.00;99.90
40848;DHT22;26570;50.962;5.340;2023-08-24T06:31:43;21.20;99.90
40848;DHT22;26570;50.962;5.340;2023-08-24T06:34:37;21.40;99.90
40848;DHT22;26570;50.962;5.340;2023-08-24T06:37:39;21.70;99.90
40848;DHT22;26570;50.962;5.340;2023-08-24T06:41:00;21.80;99.90
40848;DHT22;26570;50.962;5.340;2023-08-24T06:43:47;22.70;99.90
40848;DHT22;26570;50.962;5.340;2023-08-24T06:47:05;24.10;99.90
40848;DHT22;26570;50.962;5.340;2023-08-24T06:50:48;26.30;99.90
40848;DHT22;26570;50.962;5.340;2023-08-24T06:53:59;28.40;99.90
40848;DHT22;26570;50.962;5.340;2023-08-24T06:57:05;29.60;99.90
40848;DHT22;26570;50.962;5.340;2023-08-24T07:08:19;33.40;99.90
40848;DHT22;26570;50.962;5.340;2023-08-24T07:11:25;33.40;99.90
40848;DHT22;26570;50.962;5.340;2023-08-24T07:21:50;33.90;99.90
40848;DHT22;26570;50.962;5.340;2023-08-24T07:25:00;33.00;99.90
40848;DHT22;26570;50.962;5.340;2023-08-24T07:28:13;33.20;99.90
40848;DHT22;26570;50.962;5.340;2023-08-24T07:31:21;32.50;99.90
40848;DHT22;26570;50.962;5.340;2023-08-24T07:38:13;32.00;99.90
40848;DHT22;26570;50.962;5.340;2023-08-24T07:41:07;32.20;99.90
40848;DHT22;26570;50.962;5.340;2023-08-24T07:47:42;32.20;99.90
40848;DHT22;26570;50.962;5.340;2023-08-24T07:51:36;32.20;99.90
40848;DHT22;26570;50.962;5.340;2023-08-24T07:55:31;32.40;99.90
40848;DHT22;26570;50.962;5.340;2023-08-24T07:59:17;32.80;99.90
40848;DHT22;26570;50.962;5.340;2023-08-24T08:15:32;31.80;99.90
40848;DHT22;26570;50.962;5.340;2023-08-24T08:27:20;30.60;99.90
40848;DHT22;26570;50.962;5.340;2023-08-24T08:31:15;30.60;99.90
40848;DHT22;26570;50.962;5.340;2023-08-24T08:35:00;30.20;99.90
40848;DHT22;26570;50.962;5.340;2023-08-24T08:38:18;29.90;99.90
40848;DHT22;26570;50.962;5.340;2023-08-24T10:04:34;29.50;99.90
40848;DHT22;26570;50.962;5.340;2023-08-24T10:12:28;29.30;99.90
40848;DHT22;26570;50.962;5.340;2023-08-24T11:53:20;24.20;99.90
40848;DHT22;26570;50.962;5.340;2023-08-24T11:56:50;24.40;99.90
40848;DHT22;26570;50.962;5.340;2023-08-24T12:00:05;24.60;99.90
40848;DHT22;26570;50.962;5.340;2023-08-24T12:03:09;24.80;99.90
40848;DHT22;26570;50.962;5.340;2023-08-24T12:06:18;24.80;99.90
40848;DHT22;26570;50.962;5.340;2023-08-24T12:09:07;25.10;99.90
40848;DHT22;26570;50.962;5.340;2023-08-24T12:12:20;25.10;99.90
40848;DHT22;26570;50.962;5.340;2023-08-24T12:15:15;25.30;99.90
40848;DHT22;26570;50.962;5.340;2023-08-24T12:18:13;25.50;99.90
40848;DHT22;26570;50.962;5.340;2023-08-24T12:21:00;25.60;99.90
40848;DHT22;26570;50.962;5.340;2023-08-24T12:24:06;25.70;99.90
40848;DHT22;26570;50.962;5.340;2023-08-24T12:26:56;25.70;99.90
40848;DHT22;26570;50.962;5.340;2023-08-24T12:29:47;25.60;99.90
40848;DHT22;26570;50.962;5.340;2023-08-24T12:32:43;25.60;99.90
40848;DHT22;26570;50.962;5.340;2023-08-24T12:35:29;25.60;99.90
40848;DHT22;26570;50.962;5.340;2023-08-24T12:38:15;25.60;99.90
40848;DHT22;26570;50.962;5.340;2023-08-24T12:41:02;25.60;99.90
40848;DHT22;26570;50.962;5.340;2023-08-24T12:43:49;25.50;99.90
40848;DHT22;26570;50.962;5.340;2023-08-24T12:46:40;25.30;99.90
40848;DHT22;26570;50.962;5.340;2023-08-24T12:49:26;25.40;99.90
40848;DHT22;26570;50.962;5.340;2023-08-24T12:52:11;25.30;99.90
40848;DHT22;26570;50.962;5.340;2023-08-24T12:54:58;25.10;99.90
40848;DHT22;26570;50.962;5.340;2023-08-24T12:57:44;25.20;99.90
40848;DHT22;26570;50.962;5.340;2023-08-24T13:00:31;25.10;99.90
40848;DHT22;26570;50.962;5.340;2023-08-24T13:03:17;25.00;99.90
40848;DHT22;26570;50.962;5.340;2023-08-24T13:06:03;24.70;99.90
40848;DHT22;26570;50.962;5.340;2023-08-24T13:08:49;24.70;99.90
40848;DHT22;26570;50.962;5.340;2023-08-24T13:11:34;24.50;99.90
40848;DHT22;26570;50.962;5.340;2023-08-24T13:14:20;24.50;99.90
40848;DHT22;26570;50.962;5.340;2023-08-24T13:17:07;24.50;99.90
40848;DHT22;26570;50.962;5.340;2023-08-24T13:19:53;24.60;99.90
40848;DHT22;26570;50.962;5.340;2023-08-24T13:22:40;24.30;99.90
40848;DHT22;26570;50.962;5.340;2023-08-24T13:25:27;24.20;99.90
40848;DHT22;26570;50.962;5.340;2023-08-24T13:28:14;24.10;99.90
40848;DHT22;26570;50.962;5.340;2023-08-24T13:31:01;23.80;99.90
40848;DHT22;26570;50.962;5.340;2023-08-24T13:33:49;23.80;99.90
40848;DHT22;26570;50.962;5.340;2023-08-24T13:36:38;23.60;99.90
40848;DHT22;26570;50.962;5.340;2023-08-24T13:39:28;23.50;99.90
40848;DHT22;26570;50.962;5.340;2023-08-24T13:42:13;23.50;99.90
40848;DHT22;26570;50.962;5.340;2023-08-24T13:45:00;23.40;99.90
40848;DHT22;26570;50.962;5.340;2023-08-24T13:47:47;23.20;99.90
40848;DHT22;26570;50.962;5.340;2023-08-24T13:50:34;23.00;99.90
40848;DHT22;26570;50.962;5.340;2023-08-24T13:53:21;22.90;99.90
40848;DHT22;26570;50.962;5.340;2023-08-24T13:56:07;22.70;99.90
40848;DHT22;26570;50.962;5.340;2023-08-24T13:58:53;22.50;99.90
40848;DHT22;26570;50.962;5.340;2023-08-24T14:01:39;22.30;99.90
40848;DHT22;26570;50.962;5.340;2023-08-24T14:04:25;22.00;99.90
40848;DHT22;26570;50.962;5.340;2023-08-24T14:07:11;21.90;99.90
40848;DHT22;26570;50.962;5.340;2023-08-24T14:09:57;21.80;99.90
40848;DHT22;26570;50.962;5.340;2023-08-24T14:12:43;21.70;99.90
40848;DHT22;26570;50.962;5.340;2023-08-24T14:15:29;21.60;99.90
40848;DHT22;26570;50.962;5.340;2023-08-24T14:18:16;21.60;99.90
40848;DHT22;26570;50.962;5.340;2023-08-24T14:21:02;21.50;99.90
40848;DHT22;26570;50.962;5.340;2023-08-24T14:23:49;21.60;99.90
40848;DHT22;26570;50.962;5.340;2023-08-24T14:26:34;21.40;99.90
40848;DHT22;26570;50.962;5.340;2023-08-24T14:29:22;21.40;99.90
40848;DHT22;26570;50.962;5.340;2023-08-24T14:32:07;21.40;99.90
40848;DHT22;26570;50.962;5.340;2023-08-24T14:34:52;21.40;99.90
40848;DHT22;26570;50.962;5.340;2023-08-24T14:37:38;21.40;99.90
40848;DHT22;26570;50.962;5.340;2023-08-24T14:40:24;21.40;99.90
40848;DHT22;26570;50.962;5.340;2023-08-24T14:43:09;21.50;99.90
40848;DHT22;26570;50.962;5.340;2023-08-24T14:45:55;21.60;99.90
40848;DHT22;26570;50.962;5.340;2023-08-24T14:48:43;21.50;99.90
40848;DHT22;26570;50.962;5.340;2023-08-24T14:51:30;21.60;99.90
40848;DHT22;26570;50.962;5.340;2023-08-24T14:54:14;21.70;99.90
40848;DHT22;26570;50.962;5.340;2023-08-24T14:57:01;21.70;99.90
40848;DHT22;26570;50.962;5.340;2023-08-24T14:59:48;21.60;99.90
40848;DHT22;26570;50.962;5.340;2023-08-24T15:02:34;21.60;99.90
40848;DHT22;26570;50.962;5.340;2023-08-24T15:05:22;21.50;99.90
40848;DHT22;26570;50.962;5.340;2023-08-24T15:08:08;21.50;99.90
40848;DHT22;26570;50.962;5.340;2023-08-24T15:10:57;21.70;99.90
40848;DHT22;26570;50.962;5.340;2023-08-24T15:13:44;21.80;99.90
40848;DHT22;26570;50.962;5.340;2023-08-24T15:16:29;21.80;99.90
40848;DHT22;26570;50.962;5.340;2023-08-24T15:19:15;22.00;99.90
40848;DHT22;26570;50.962;5.340;2023-08-24T15:22:01;22.20;99.90
40848;DHT22;26570;50.962;5.340;2023-08-24T15:24:46;22.40;99.90
40848;DHT22;26570;50.962;5.340;2023-08-24T15:27:32;22.50;99.90
40848;DHT22;26570;50.962;5.340;2023-08-24T15:30:18;22.50;99.90
40848;DHT22;26570;50.962;5.340;2023-08-24T15:33:03;22.50;99.90
40848;DHT22;26570;50.962;5.340;2023-08-24T15:35:49;22.60;99.90
40848;DHT22;26570;50.962;5.340;2023-08-24T15:38:35;22.60;99.90
40848;DHT22;26570;50.962;5.340;2023-08-24T15:41:20;22.70;99.90
40848;DHT22;26570;50.962;5.340;2023-08-24T15:44:06;22.70;99.90
40848;DHT22;26570;50.962;5.340;2023-08-24T15:46:52;22.60;99.90
40848;DHT22;26570;50.962;5.340;2023-08-24T15:49:37;22.60;99.90
40848;DHT22;26570;50.962;5.340;2023-08-24T15:52:23;22.90;99.90
40848;DHT22;26570;50.962;5.340;2023-08-24T15:55:08;22.90;99.90
40848;DHT22;26570;50.962;5.340;2023-08-24T15:57:54;23.00;99.90
40848;DHT22;26570;50.962;5.340;2023-08-24T16:00:39;23.10;99.90
40848;DHT22;26570;50.962;5.340;2023-08-24T16:03:25;23.30;99.90
40848;DHT22;26570;50.962;5.340;2023-08-24T16:06:11;23.30;99.90
40848;DHT22;26570;50.962;5.340;2023-08-24T16:08:56;23.40;99.90
40848;DHT22;26570;50.962;5.340;2023-08-24T16:11:41;23.50;99.90
40848;DHT22;26570;50.962;5.340;2023-08-24T16:14:26;23.50;99.90
40848;DHT22;26570;50.962;5.340;2023-08-24T16:17:11;23.50;99.90
40848;DHT22;26570;50.962;5.340;2023-08-24T16:19:56;23.50;99.90
40848;DHT22;26570;50.962;5.340;2023-08-24T16:22:41;23.70;99.90
40848;DHT22;26570;50.962;5.340;2023-08-24T16:25:27;23.90;99.90
40848;DHT22;26570;50.962;5.340;2023-08-24T16:28:13;24.10;99.90
40848;DHT22;26570;50.962;5.340;2023-08-24T16:30:58;24.10;99.90
40848;DHT22;26570;50.962;5.340;2023-08-24T16:33:44;24.40;99.90
40848;DHT22;26570;50.962;5.340;2023-08-24T16:36:29;24.40;99.90
40848;DHT22;26570;50.962;5.340;2023-08-24T16:39:14;24.60;99.90
40848;DHT22;26570;50.962;5.340;2023-08-24T16:41:59;24.70;99.90
40848;DHT22;26570;50.962;5.340;2023-08-24T16:44:45;24.70;99.90
40848;DHT22;26570;50.962;5.340;2023-08-24T16:47:30;25.00;99.90
40848;DHT22;26570;50.962;5.340;2023-08-24T16:50:16;25.10;99.90
40848;DHT22;26570;50.962;5.340;2023-08-24T16:53:01;25.20;99.90
40848;DHT22;26570;50.962;5.340;2023-08-24T16:55:48;25.20;99.90
40848;DHT22;26570;50.962;5.340;2023-08-24T16:58:34;25.40;99.90
40848;DHT22;26570;50.962;5.340;2023-08-24T17:01:19;25.40;99.90
40848;DHT22;26570;50.962;5.340;2023-08-24T17:04:05;25.40;99.90
40848;DHT22;26570;50.962;5.340;2023-08-24T17:06:50;25.40;99.90
40848;DHT22;26570;50.962;5.340;2023-08-24T17:09:35;25.30;99.90
40848;DHT22;26570;50.962;5.340;2023-08-24T17:12:20;25.20;99.90
40848;DHT22;26570;50.962;5.340;2023-08-24T17:15:06;25.30;99.90
40848;DHT22;26570;50.962;5.340;2023-08-24T17:17:52;25.30;99.90
40848;DHT22;26570;50.962;5.340;2023-08-24T17:20:37;25.30;99.90
40848;DHT22;26570;50.962;5.340;2023-08-24T17:23:24;25.40;99.90
40848;DHT22;26570;50.962;5.340;2023-08-24T17:26:10;25.30;99.90
40848;DHT22;26570;50.962;5.340;2023-08-24T17:28:55;25.50;99.90
40848;DHT22;26570;50.962;5.340;2023-08-24T17:31:40;25.60;99.90
40848;DHT22;26570;50.962;5.340;2023-08-24T17:34:25;25.60;99.90
40848;DHT22;26570;50.962;5.340;2023-08-24T17:37:11;25.70;99.90
40848;DHT22;26570;50.962;5.340;2023-08-24T17:39:56;25.70;99.90
40848;DHT22;26570;50.962;5.340;2023-08-24T17:42:42;25.70;99.90
40848;DHT22;26570;50.962;5.340;2023-08-24T17:45:27;25.70;99.90
40848;DHT22;26570;50.962;5.340;2023-08-24T17:48:12;25.80;99.90
40848;DHT22;26570;50.962;5.340;2023-08-24T17:50:58;25.60;99.90
40848;DHT22;26570;50.962;5.340;2023-08-24T17:53:44;25.60;99.90
40848;DHT22;26570;50.962;5.340;2023-08-24T17:56:28;25.60;99.90
40848;DHT22;26570;50.962;5.340;2023-08-24T17:59:16;25.60;99.90
40848;DHT22;26570;50.962;5.340;2023-08-24T18:02:01;25.50;99.90
40848;DHT22;26570;50.962;5.340;2023-08-24T18:04:47;25.40;99.90
40848;DHT22;26570;50.962;5.340;2023-08-24T18:07:32;25.20;99.90
40848;DHT22;26570;50.962;5.340;2023-08-24T18:10:20;25.00;99.90
40848;DHT22;26570;50.962;5.340;2023-08-24T18:13:06;24.90;99.90
40848;DHT22;26570;50.962;5.340;2023-08-24T18:15:51;24.70;99.90
40848;DHT22;26570;50.962;5.340;2023-08-24T18:18:36;24.50;99.90
40848;DHT22;26570;50.962;5.340;2023-08-24T18:21:23;24.30;99.90
40848;DHT22;26570;50.962;5.340;2023-08-24T18:24:08;24.30;99.90
40848;DHT22;26570;50.962;5.340;2023-08-24T18:26:53;24.20;99.90
40848;DHT22;26570;50.962;5.340;2023-08-24T18:29:42;24.10;99.90
40848;DHT22;26570;50.962;5.340;2023-08-24T18:32:27;23.90;99.90
40848;DHT22;26570;50.962;5.340;2023-08-24T18:35:12;23.60;99.90
40848;DHT22;26570;50.962;5.340;2023-08-24T18:37:58;23.50;99.90
40848;DHT22;26570;50.962;5.340;2023-08-24T18:40:43;23.40;99.90
40848;DHT22;26570;50.962;5.340;2023-08-24T18:43:31;23.30;99.90
40848;DHT22;26570;50.962;5.340;2023-08-24T18:46:16;23.10;99.90
40848;DHT22;26570;50.962;5.340;2023-08-24T18:49:01;22.90;99.90
40848;DHT22;26570;50.962;5.340;2023-08-24T18:51:48;22.70;99.90
40848;DHT22;26570;50.962;5.340;2023-08-24T18:54:36;22.60;99.90
40848;DHT22;26570;50.962;5.340;2023-08-24T18:57:21;22.40;99.90
40848;DHT22;26570;50.962;5.340;2023-08-24T19:00:09;22.50;99.90
40848;DHT22;26570;50.962;5.340;2023-08-24T19:03:05;22.60;99.90
40848;DHT22;26570;50.962;5.340;2023-08-24T19:05:51;22.30;99.90
40848;DHT22;26570;50.962;5.340;2023-08-24T19:08:35;22.20;99.90
40848;DHT22;26570;50.962;5.340;2023-08-24T19:15:04;22.00;99.90
40848;DHT22;26570;50.962;5.340;2023-08-24T19:17:50;22.00;99.90
40848;DHT22;26570;50.962;5.340;2023-08-24T19:20:40;21.90;99.90
40848;DHT22;26570;50.962;5.340;2023-08-24T19:23:26;21.80;99.90
40848;DHT22;26570;50.962;5.340;2023-08-24T19:26:12;21.80;99.90
40848;DHT22;26570;50.962;5.340;2023-08-24T19:28:58;21.70;99.90
40848;DHT22;26570;50.962;5.340;2023-08-24T19:31:45;21.50;99.90
40848;DHT22;26570;50.962;5.340;2023-08-24T19:34:31;21.50;99.90
40848;DHT22;26570;50.962;5.340;2023-08-24T19:37:17;21.40;99.90
40848;DHT22;26570;50.962;5.340;2023-08-24T19:40:03;21.30;99.90
40848;DHT22;26570;50.962;5.340;2023-08-24T19:42:50;21.30;99.90
40848;DHT22;26570;50.962;5.340;2023-08-24T19:45:36;21.30;99.90
40848;DHT22;26570;50.962;5.340;2023-08-24T19:48:22;21.40;99.90
40848;DHT22;26570;50.962;5.340;2023-08-24T19:51:08;21.30;99.90
40848;DHT22;26570;50.962;5.340;2023-08-24T19:53:56;21.10;99.90
40848;DHT22;26570;50.962;5.340;2023-08-24T19:56:42;21.00;99.90
40848;DHT22;26570;50.962;5.340;2023-08-24T19:59:29;21.00;99.90
40848;DHT22;26570;50.962;5.340;2023-08-24T20:02:15;21.00;99.90
40848;DHT22;26570;50.962;5.340;2023-08-24T20:05:01;20.90;99.90
40848;DHT22;26570;50.962;5.340;2023-08-24T20:07:48;20.80;99.90
40848;DHT22;26570;50.962;5.340;2023-08-24T20:10:34;20.80;99.90
40848;DHT22;26570;50.962;5.340;2023-08-24T20:13:19;20.70;99.90
40848;DHT22;26570;50.962;5.340;2023-08-24T20:16:09;20.70;99.90
40848;DHT22;26570;50.962;5.340;2023-08-24T20:18:55;20.70;99.90
40848;DHT22;26570;50.962;5.340;2023-08-24T20:21:41;20.60;99.90
40848;DHT22;26570;50.962;5.340;2023-08-24T20:24:27;20.50;99.90
40848;DHT22;26570;50.962;5.340;2023-08-24T20:27:14;20.40;99.90
40848;DHT22;26570;50.962;5.340;2023-08-24T20:30:00;20.50;99.90
40848;DHT22;26570;50.962;5.340;2023-08-24T20:32:46;20.60;99.90
40848;DHT22;26570;50.962;5.340;2023-08-24T20:35:33;20.40;99.90
40848;DHT22;26570;50.962;5.340;2023-08-24T20:38:19;20.40;99.90
40848;DHT22;26570;50.962;5.340;2023-08-24T20:41:05;20.40;99.90
40848;DHT22;26570;50.962;5.340;2023-08-24T20:43:51;20.40;99.90
40848;DHT22;26570;50.962;5.340;2023-08-24T20:46:37;20.40;99.90
40848;DHT22;26570;50.962;5.340;2023-08-24T20:49:23;20.30;99.90
40848;DHT22;26570;50.962;5.340;2023-08-24T20:52:11;20.30;99.90
40848;DHT22;26570;50.962;5.340;2023-08-24T20:54:57;20.10;99.90
40848;DHT22;26570;50.962;5.340;2023-08-24T20:57:43;20.20;99.90
40848;DHT22;26570;50.962;5.340;2023-08-24T21:00:29;20.40;99.90
40848;DHT22;26570;50.962;5.340;2023-08-24T21:03:16;20.20;99.90
40848;DHT22;26570;50.962;5.340;2023-08-24T21:06:03;20.20;99.90
40848;DHT22;26570;50.962;5.340;2023-08-24T21:08:49;20.20;99.90
40848;DHT22;26570;50.962;5.340;2023-08-24T21:11:35;20.30;99.90
40848;DHT22;26570;50.962;5.340;2023-08-24T21:14:21;20.30;99.90
40848;DHT22;26570;50.962;5.340;2023-08-24T21:17:08;20.30;99.90
40848;DHT22;26570;50.962;5.340;2023-08-24T21:19:54;20.30;99.90
40848;DHT22;26570;50.962;5.340;2023-08-24T21:22:40;20.40;99.90
40848;DHT22;26570;50.962;5.340;2023-08-24T21:25:26;20.40;99.90
40848;DHT22;26570;50.962;5.340;2023-08-24T21:28:14;20.40;99.90
40848;DHT22;26570;50.962;5.340;2023-08-24T21:31:00;20.40;99.90
40848;DHT22;26570;50.962;5.340;2023-08-24T21:33:47;20.50;99.90
40848;DHT22;26570;50.962;5.340;2023-08-24T21:36:33;20.50;99.90
40848;DHT22;26570;50.962;5.340;2023-08-24T21:39:19;20.50;99.90
40848;DHT22;26570;50.962;5.340;2023-08-24T21:42:06;20.40;99.90
40848;DHT22;26570;50.962;5.340;2023-08-24T21:44:52;20.50;99.90
40848;DHT22;26570;50.962;5.340;2023-08-24T21:47:39;20.40;99.90
40848;DHT22;26570;50.962;5.340;2023-08-24T21:50:25;20.40;99.90
40848;DHT22;26570;50.962;5.340;2023-08-24T21:53:14;20.30;99.90
40848;DHT22;26570;50.962;5.340;2023-08-24T21:55:59;20.30;99.90
40848;DHT22;26570;50.962;5.340;2023-08-24T21:58:46;20.40;99.90
40848;DHT22;26570;50.962;5.340;2023-08-24T22:01:33;20.60;99.90
40848;DHT22;26570;50.962;5.340;2023-08-24T22:04:20;20.70;99.90
40848;DHT22;26570;50.962;5.340;2023-08-24T22:07:06;20.60;99.90
40848;DHT22;26570;50.962;5.340;2023-08-24T22:09:52;20.30;99.90
40848;DHT22;26570;50.962;5.340;2023-08-24T22:12:39;20.30;99.90
40848;DHT22;26570;50.962;5.340;2023-08-24T22:15:26;20.20;99.90
40848;DHT22;26570;50.962;5.340;2023-08-24T22:18:12;20.10;99.90
40848;DHT22;26570;50.962;5.340;2023-08-24T22:20:58;20.00;99.90
40848;DHT22;26570;50.962;5.340;2023-08-24T22:23:44;19.90;99.90
40848;DHT22;26570;50.962;5.340;2023-08-24T22:26:30;20.00;99.90
40848;DHT22;26570;50.962;5.340;2023-08-24T22:29:15;19.90;99.90
40848;DHT22;26570;50.962;5.340;2023-08-24T22:32:02;19.90;99.90
40848;DHT22;26570;50.962;5.340;2023-08-24T22:34:48;19.90;99.90